Time;durP1;ratioP1;P1;durP2;ratioP2;P2;SDS_P1;SDS_P2;PMS_P1;PMS_P2;Temp;Humidity;BMP_temperature;BMP_pressure;BME280_temperature;BME280_humidity;BME280_pressure;Samples;Min_cycle;Max_cycle;Signal;HPM_P1;HPM_P2
2023/04/22 00:00:15;;;;;;;0.10;0.10;;;12.40;99.90;;;;;;5103192;28;20028;-77
2023/04/22 00:02:42;;;;;;;0.32;0.32;;;12.10;99.90;;;;;;5083707;28;20040;-77
2023/04/22 00:05:12;;;;;;;0.30;0.30;;;12.10;99.90;;;;;;5093785;28;20449;-76
2023/04/22 00:07:42;;;;;;;0.20;0.20;;;12.10;99.90;;;;;;5091547;28;20178;-77
2023/04/22 00:10:09;;;;;;;0.25;0.25;;;12.30;99.90;;;;;;5102331;28;20038;-76
2023/04/22 00:12:35;;;;;;;3.67;1.55;;;12.20;99.90;;;;;;5091249;28;20150;-76
2023/04/22 00:15:00;;;;;;;0.38;0.38;;;12.30;99.90;;;;;;5102528;28;20098;-76
2023/04/22 00:17:26;;;;;;;0.90;0.90;;;12.50;99.90;;;;;;5102322;28;20031;-76
2023/04/22 00:19:53;;;;;;;0.70;0.70;;;12.50;99.90;;;;;;5100907;28;20043;-76
2023/04/22 00:22:19;;;;;;;0.22;0.22;;;12.50;99.90;;;;;;5102645;28;20833;-77
2023/04/22 00:24:45;;;;;;;2.27;1.47;;;12.30;99.90;;;;;;5103004;28;20042;-77
2023/04/22 00:27:10;;;;;;;0.17;0.17;;;12.00;99.90;;;;;;5102684;28;20024;-77
2023/04/22 00:29:36;;;;;;;0.45;0.45;;;12.10;99.90;;;;;;5101746;28;20111;-77
2023/04/22 00:32:02;;;;;;;0.38;0.38;;;12.10;99.90;;;;;;5103853;28;20130;-76
2023/04/22 00:34:27;;;;;;;0.32;0.32;;;12.10;99.90;;;;;;5084209;28;20042;-77
2023/04/22 00:36:53;;;;;;;1.88;0.80;;;12.00;99.90;;;;;;5102549;28;20862;-77
2023/04/22 00:39:19;;;;;;;1.45;0.65;;;12.00;99.90;;;;;;5083518;28;20076;-76
2023/04/22 00:41:45;;;;;;;0.35;0.35;;;11.90;99.90;;;;;;5102344;28;20094;-77
2023/04/22 00:44:11;;;;;;;0.60;0.60;;;11.90;99.90;;;;;;5102093;28;20028;-76
2023/04/22 00:46:38;;;;;;;0.63;0.63;;;11.90;99.90;;;;;;5103343;28;20114;-77
2023/04/22 00:49:05;;;;;;;1.30;0.50;;;11.80;99.90;;;;;;5102294;28;20024;-76
2023/04/22 00:51:31;;;;;;;;;;;12.10;99.90;;;;;;5084199;28;20027;-77
2023/04/22 00:53:57;;;;;;;0.25;0.25;;;12.20;99.90;;;;;;5101996;28;20354;-77
2023/04/22 00:56:25;;;;;;;0.30;0.30;;;12.20;99.90;;;;;;5076261;28;20039;-77
2023/04/22 00:58:53;;;;;;;0.55;0.55;;;12.10;99.90;;;;;;5102080;28;20019;-77
2023/04/22 01:01:18;;;;;;;0.10;0.10;;;11.90;99.90;;;;;;5102345;28;20035;-77
2023/04/22 01:03:46;;;;;;;0.25;0.25;;;11.80;99.90;;;;;;5098181;28;20020;-77
2023/04/22 01:06:12;;;;;;;0.38;0.38;;;11.90;99.90;;;;;;5100771;28;20036;-77
2023/04/22 01:08:39;;;;;;;0.10;0.10;;;11.90;99.90;;;;;;5106417;28;20023;-76
2023/04/22 01:11:05;;;;;;;0.40;0.40;;;12.00;99.90;;;;;;5105188;28;20058;-77
2023/04/22 01:13:31;;;;;;;2.28;1.38;;;11.80;99.90;;;;;;5087870;28;20051;-77
2023/04/22 01:15:59;;;;;;;3.75;1.42;;;11.90;99.90;;;;;;5104490;28;20476;-76
2023/04/22 01:18:25;;;;;;;0.32;0.32;;;11.80;99.90;;;;;;5104093;27;20031;-77
2023/04/22 01:20:51;;;;;;;0.50;0.50;;;11.90;99.90;;;;;;5105094;28;20122;-77
2023/04/22 01:23:21;;;;;;;0.63;0.60;;;12.10;99.90;;;;;;5105399;28;20054;-77
2023/04/22 01:25:47;;;;;;;0.20;0.20;;;12.20;99.90;;;;;;5106222;28;20335;-77
2023/04/22 01:28:15;;;;;;;0.60;0.60;;;12.30;99.90;;;;;;5087163;28;20069;-77
2023/04/22 01:30:42;;;;;;;1.30;1.20;;;12.30;99.90;;;;;;5107634;27;20026;-77
2023/04/22 01:33:09;;;;;;;0.88;0.88;;;12.50;99.90;;;;;;5104397;28;20047;-77
2023/04/22 01:35:35;;;;;;;;;;;11.80;99.90;;;;;;5105985;27;20019;-78
2023/04/22 01:38:06;;;;;;;0.35;0.35;;;11.70;99.90;;;;;;5086129;28;20762;-77
2023/04/22 01:40:32;;;;;;;0.73;0.47;;;11.70;99.90;;;;;;5087400;28;20402;-77
2023/04/22 01:43:01;;;;;;;0.83;0.83;;;11.60;99.90;;;;;;5104879;27;20049;-77
2023/04/22 01:45:27;;;;;;;1.50;1.00;;;11.80;99.90;;;;;;5106224;28;20035;-77
2023/04/22 01:47:53;;;;;;;0.57;0.57;;;11.60;99.90;;;;;;5105157;28;20019;-77
2023/04/22 01:50:19;;;;;;;0.53;0.53;;;11.50;99.90;;;;;;5105749;28;20032;-78
2023/04/22 01:52:45;;;;;;;0.20;0.20;;;11.50;99.90;;;;;;5104251;27;20028;-78
2023/04/22 01:55:11;;;;;;;0.38;0.38;;;11.50;99.90;;;;;;5086647;28;20072;-78
2023/04/22 01:57:36;;;;;;;0.80;0.80;;;11.50;99.90;;;;;;5104972;27;20483;-78
2023/04/22 02:00:04;;;;;;;0.40;0.40;;;11.50;99.90;;;;;;5104938;28;20185;-77
2023/04/22 02:02:30;;;;;;;1.38;0.52;;;11.40;99.90;;;;;;5085367;28;20657;-77
2023/04/22 02:04:56;;;;;;;3.78;2.10;;;11.40;99.90;;;;;;5092793;28;20119;-77
2023/04/22 02:07:21;;;;;;;1.77;1.67;;;11.40;99.90;;;;;;5105209;28;20020;-77
2023/04/22 02:09:48;;;;;;;0.30;0.30;;;11.60;99.90;;;;;;5102069;28;20028;-77
2023/04/22 02:12:13;;;;;;;0.40;0.40;;;11.50;99.90;;;;;;5104545;28;20029;-78
2023/04/22 02:14:39;;;;;;;0.60;0.60;;;11.50;99.90;;;;;;5104367;28;20661;-77
2023/04/22 02:17:05;;;;;;;0.50;0.50;;;11.80;99.90;;;;;;5096166;28;20108;-78
2023/04/22 02:19:30;;;;;;;0.82;0.82;;;12.00;99.90;;;;;;5100480;28;20405;-78
2023/04/22 02:21:56;;;;;;;0.80;0.80;;;11.90;99.90;;;;;;5103807;28;20051;-78
2023/04/22 02:24:22;;;;;;;0.20;0.20;;;11.80;99.90;;;;;;5101233;28;20036;-78
2023/04/22 02:26:48;;;;;;;0.32;0.32;;;11.70;99.90;;;;;;5104778;28;20038;-77
2023/04/22 02:29:15;;;;;;;0.28;0.28;;;11.50;99.90;;;;;;5104651;28;20188;-77
2023/04/22 02:31:40;;;;;;;0.35;0.35;;;11.50;99.90;;;;;;5086915;28;20477;-77
2023/04/22 02:34:06;;;;;;;0.57;0.57;;;11.40;99.90;;;;;;5104584;28;20031;-77
2023/04/22 02:36:33;;;;;;;0.55;0.55;;;11.50;99.90;;;;;;5103956;28;20439;-77
2023/04/22 02:39:00;;;;;;;0.32;0.32;;;11.40;99.90;;;;;;5104662;28;20020;-77
2023/04/22 02:41:26;;;;;;;;;;;11.40;99.90;;;;;;5098443;28;20135;-77
2023/04/22 02:43:51;;;;;;;4.80;1.37;;;11.40;99.90;;;;;;5104911;28;20624;-77
2023/04/22 02:46:17;;;;;;;1.25;1.15;;;11.40;99.90;;;;;;5085441;28;20097;-77
2023/04/22 02:48:43;;;;;;;0.73;0.73;;;11.40;99.90;;;;;;5104687;27;20055;-77
2023/04/22 02:51:09;;;;;;;0.10;0.10;;;11.40;99.90;;;;;;5085299;28;20373;-77
2023/04/22 02:53:35;;;;;;;0.45;0.45;;;11.50;99.90;;;;;;5104227;28;20034;-77
2023/04/22 02:56:01;;;;;;;0.10;0.10;;;11.40;99.90;;;;;;5104280;28;20024;-76
2023/04/22 02:58:27;;;;;;;0.65;0.65;;;11.50;99.90;;;;;;5103639;28;20028;-76
2023/04/22 03:00:55;;;;;;;1.25;0.68;;;11.40;99.90;;;;;;5104224;28;20115;-76
2023/04/22 03:03:21;;;;;;;1.60;0.93;;;11.50;99.90;;;;;;5101389;28;20043;-77
2023/04/22 03:05:47;;;;;;;0.20;0.20;;;11.40;99.90;;;;;;5104844;28;20046;-77
2023/04/22 03:08:12;;;;;;;0.20;0.20;;;11.50;99.90;;;;;;5100546;28;20102;-77
2023/04/22 03:10:38;;;;;;;0.73;0.73;;;11.50;99.90;;;;;;5104531;28;20031;-77
2023/04/22 03:13:04;;;;;;;0.43;0.43;;;11.50;99.90;;;;;;5103259;28;20953;-77
2023/04/22 03:15:29;;;;;;;0.38;0.38;;;11.50;99.90;;;;;;5104086;28;20027;-77
2023/04/22 03:17:55;;;;;;;0.50;0.50;;;11.50;99.90;;;;;;5103408;28;20040;-77
2023/04/22 03:20:21;;;;;;;0.20;0.20;;;11.50;99.90;;;;;;5103400;28;20016;-77
2023/04/22 03:22:46;;;;;;;0.65;0.50;;;11.50;99.90;;;;;;5082472;28;20023;-77
2023/04/22 03:25:12;;;;;;;0.32;0.32;;;11.50;99.90;;;;;;5104310;28;20023;-77
2023/04/22 03:27:38;;;;;;;0.35;0.35;;;11.50;99.90;;;;;;5102564;28;20076;-77
2023/04/22 03:30:04;;;;;;;0.38;0.38;;;11.60;99.90;;;;;;5095440;27;20054;-77
2023/04/22 03:32:30;;;;;;;0.20;0.20;;;11.50;99.90;;;;;;5103086;27;20097;-77
2023/04/22 03:34:56;;;;;;;0.13;0.13;;;11.60;99.90;;;;;;5079241;28;20039;-77
2023/04/22 03:37:21;;;;;;;5.00;1.70;;;11.60;99.90;;;;;;5080119;28;20551;-77
2023/04/22 03:39:47;;;;;;;0.63;0.63;;;11.70;99.90;;;;;;5102903;28;20024;-77
2023/04/22 03:42:13;;;;;;;0.10;0.10;;;11.70;99.90;;;;;;5097643;28;20084;-77
2023/04/22 03:44:39;;;;;;;0.23;0.23;;;11.80;99.90;;;;;;5102949;27;20037;-77
2023/04/22 03:47:05;;;;;;;1.15;1.05;;;11.80;99.90;;;;;;5096467;28;20023;-77
2023/04/22 03:49:30;;;;;;;0.28;0.28;;;11.80;99.90;;;;;;5103154;27;20730;-78
2023/04/22 03:51:56;;;;;;;0.20;0.20;;;11.80;99.90;;;;;;5095215;28;20059;-78
2023/04/22 03:54:24;;;;;;;0.10;0.10;;;11.80;99.90;;;;;;5084301;28;20027;-77
2023/04/22 03:56:49;;;;;;;0.10;0.10;;;11.90;99.90;;;;;;5103204;28;20061;-77
2023/04/22 03:59:16;;;;;;;0.10;0.10;;;11.90;99.90;;;;;;5087304;27;20031;-77
2023/04/22 04:01:42;;;;;;;;;;;11.90;99.90;;;;;;5103301;27;20591;-77
2023/04/22 04:04:08;;;;;;;0.33;0.33;;;11.80;99.90;;;;;;5102965;28;19907;-77
2023/04/22 04:06:33;;;;;;;0.40;0.40;;;12.00;99.90;;;;;;5102337;28;20052;-77
2023/04/22 04:09:00;;;;;;;0.10;0.10;;;11.90;99.90;;;;;;5099865;28;20051;-77
2023/04/22 04:11:26;;;;;;;0.30;0.30;;;11.90;99.90;;;;;;5101442;28;20020;-78
2023/04/22 04:13:51;;;;;;;0.17;0.17;;;12.00;99.90;;;;;;5103504;28;20512;-77
2023/04/22 04:16:17;;;;;;;0.10;0.10;;;11.90;99.90;;;;;;5101771;27;20035;-77
2023/04/22 04:18:43;;;;;;;0.20;0.20;;;12.00;99.90;;;;;;5103082;28;20098;-77
2023/04/22 04:21:09;;;;;;;0.20;0.20;;;12.10;99.90;;;;;;5101097;28;20023;-77
2023/04/22 04:23:34;;;;;;;6.88;0.80;;;12.00;99.90;;;;;;5102297;28;20085;-77
2023/04/22 04:26:01;;;;;;;0.55;0.55;;;12.10;99.90;;;;;;5099564;28;20553;-77
2023/04/22 04:28:31;;;;;;;0.30;0.30;;;12.20;99.90;;;;;;5102649;28;20027;-77
2023/04/22 04:30:57;;;;;;;0.50;0.50;;;12.20;99.90;;;;;;5103742;27;20040;-77
2023/04/22 04:33:23;;;;;;;0.57;0.57;;;12.20;99.90;;;;;;5102230;28;20055;-77
2023/04/22 04:35:50;;;;;;;0.10;0.10;;;12.30;99.90;;;;;;5101560;28;20039;-77
2023/04/22 04:38:16;;;;;;;0.10;0.10;;;12.30;99.90;;;;;;5101077;28;20042;-77
2023/04/22 04:40:42;;;;;;;0.25;0.25;;;12.30;99.90;;;;;;5102075;28;20027;-76
2023/04/22 04:43:08;;;;;;;0.28;0.28;;;12.30;99.90;;;;;;5101993;28;20051;-77
2023/04/22 04:45:37;;;;;;;0.28;0.28;;;12.50;99.90;;;;;;5083495;28;20863;-76
2023/04/22 04:48:05;;;;;;;0.10;0.10;;;12.40;99.90;;;;;;5094370;28;20139;-76
2023/04/22 04:50:32;;;;;;;0.82;0.82;;;12.50;99.90;;;;;;5101847;28;20023;-77
2023/04/22 04:52:57;;;;;;;0.30;0.30;;;12.70;99.90;;;;;;5101866;28;20051;-77
2023/04/22 04:55:23;;;;;;;0.10;0.10;;;12.60;99.90;;;;;;5102370;28;20102;-78
2023/04/22 04:57:49;;;;;;;0.32;0.32;;;12.70;99.90;;;;;;5101639;28;20724;-77
2023/04/22 05:00:15;;;;;;;0.40;0.40;;;12.60;99.90;;;;;;5102001;28;20019;-78
2023/04/22 05:02:41;;;;;;;0.40;0.40;;;12.70;99.90;;;;;;5082085;28;20599;-78
2023/04/22 05:05:07;;;;;;;0.40;0.40;;;12.80;99.90;;;;;;5101050;28;20028;-77
2023/04/22 05:07:33;;;;;;;0.10;0.10;;;12.90;99.90;;;;;;5100092;28;20078;-77
2023/04/22 05:09:59;;;;;;;0.10;0.10;;;12.90;99.90;;;;;;5100253;28;20042;-77
2023/04/22 05:12:25;;;;;;;1.35;0.57;;;12.80;99.90;;;;;;5083387;28;20096;-77
2023/04/22 05:14:50;;;;;;;0.88;0.88;;;12.80;99.90;;;;;;5101569;28;20494;-77
2023/04/22 05:17:16;;;;;;;0.10;0.10;;;12.80;99.90;;;;;;5101694;28;20032;-77
2023/04/22 05:19:42;;;;;;;0.97;0.87;;;12.90;99.90;;;;;;5100229;28;20069;-76
2023/04/22 05:22:07;;;;;;;0.03;0.03;;;12.90;99.90;;;;;;5102324;28;20034;-76
2023/04/22 05:24:33;;;;;;;0.10;0.10;;;13.00;99.90;;;;;;5100631;28;20054;-76
2023/04/22 05:26:59;;;;;;;2.63;0.57;;;13.00;99.90;;;;;;5100768;28;20123;-76
2023/04/22 05:29:26;;;;;;;0.10;0.10;;;13.00;99.90;;;;;;5099664;28;20024;-76
2023/04/22 05:31:51;;;;;;;0.30;0.30;;;13.00;99.90;;;;;;5102375;28;20043;-76
2023/04/22 05:34:17;;;;;;;0.10;0.10;;;13.00;99.90;;;;;;5100892;28;20038;-76
2023/04/22 05:36:43;;;;;;;0.10;0.10;;;13.00;99.90;;;;;;5081666;28;20024;-76
2023/04/22 05:39:08;;;;;;;0.43;0.43;;;13.00;99.90;;;;;;5088764;28;20032;-76
2023/04/22 05:41:34;;;;;;;0.47;0.38;;;13.00;99.90;;;;;;5082769;28;20036;-76
2023/04/22 05:44:00;;;;;;;0.50;0.50;;;13.10;99.90;;;;;;5095664;28;20787;-76
2023/04/22 05:46:26;;;;;;;0.30;0.30;;;13.20;99.90;;;;;;5082284;28;20517;-76
2023/04/22 05:48:53;;;;;;;0.10;0.10;;;13.30;99.90;;;;;;5082913;28;20039;-76
2023/04/22 05:51:19;;;;;;;0.20;0.20;;;13.40;99.90;;;;;;5120694;27;20034;-76
2023/04/22 05:53:45;;;;;;;0.00;0.00;;;13.50;99.90;;;;;;5100999;27;20023;-76
2023/04/22 05:56:10;;;;;;;0.20;0.20;;;13.50;99.90;;;;;;5107784;27;20039;-76
2023/04/22 05:58:36;;;;;;;0.25;0.25;;;13.60;99.90;;;;;;5096604;28;20063;-76
2023/04/22 06:01:02;;;;;;;0.88;0.85;;;13.70;99.90;;;;;;5092489;28;20020;-76
2023/04/22 06:03:28;;;;;;;0.10;0.10;;;13.70;99.90;;;;;;5103480;28;20083;-76
2023/04/22 06:05:54;;;;;;;0.35;0.35;;;13.60;99.90;;;;;;5103642;28;20023;-75
2023/04/22 06:08:20;;;;;;;0.20;0.20;;;13.60;99.90;;;;;;5099778;28;20032;-77
2023/04/22 06:10:45;;;;;;;0.25;0.25;;;13.60;99.90;;;;;;5088504;28;20027;-76
2023/04/22 06:13:11;;;;;;;0.50;0.33;;;13.60;99.90;;;;;;5098456;28;20086;-76
2023/04/22 06:15:37;;;;;;;0.13;0.13;;;13.60;99.90;;;;;;5098803;28;20032;-77
2023/04/22 06:18:02;;;;;;;0.22;0.22;;;13.60;99.90;;;;;;5104331;28;20092;-77
2023/04/22 06:20:28;;;;;;;0.40;0.40;;;13.60;99.90;;;;;;5101734;28;20035;-77
2023/04/22 06:22:54;;;;;;;2.25;0.70;;;13.70;99.90;;;;;;5085722;28;20058;-77
2023/04/22 06:25:19;;;;;;;0.10;0.10;;;13.80;99.90;;;;;;5087761;28;20118;-77
2023/04/22 06:27:45;;;;;;;0.10;0.10;;;13.90;99.90;;;;;;5102697;27;20102;-78
2023/04/22 06:30:11;;;;;;;0.60;0.60;;;13.90;99.90;;;;;;5104452;27;20024;-77
2023/04/22 06:32:37;;;;;;;0.50;0.50;;;14.00;99.90;;;;;;5095346;28;20047;-77
2023/04/22 06:35:03;;;;;;;0.20;0.20;;;13.90;99.90;;;;;;5097292;28;20031;-77
2023/04/22 06:37:29;;;;;;;0.30;0.30;;;13.90;99.90;;;;;;5099208;28;20118;-78
2023/04/22 06:39:55;;;;;;;0.10;0.10;;;14.00;99.90;;;;;;5102356;28;20020;-77
2023/04/22 06:42:20;;;;;;;0.40;0.40;;;14.00;99.90;;;;;;5096242;28;20027;-77
2023/04/22 06:44:46;;;;;;;0.33;0.33;;;13.90;99.90;;;;;;5107404;27;20035;-77
2023/04/22 06:47:11;;;;;;;2.13;0.47;;;13.80;99.90;;;;;;5103449;27;20033;-78
2023/04/22 06:49:38;;;;;;;0.17;0.17;;;13.70;99.90;;;;;;5103435;28;20081;-78
2023/04/22 06:52:04;;;;;;;1.48;1.13;;;13.60;99.90;;;;;;5087243;28;20441;-77
2023/04/22 06:54:30;;;;;;;0.20;0.20;;;13.60;99.90;;;;;;5104787;27;20135;-76
2023/04/22 06:56:56;;;;;;;1.77;1.67;;;13.70;99.90;;;;;;5101230;28;20028;-76
2023/04/22 06:59:22;;;;;;;1.60;1.30;;;13.70;99.90;;;;;;5099307;28;20401;-76
2023/04/22 07:01:48;;;;;;;0.50;0.50;;;13.70;99.90;;;;;;5099701;28;20056;-76
2023/04/22 07:04:14;;;;;;;0.73;0.73;;;13.70;99.90;;;;;;5106487;27;20031;-76
2023/04/22 07:06:39;;;;;;;0.22;0.22;;;13.70;99.90;;;;;;5096107;28;20043;-76
2023/04/22 07:09:05;;;;;;;0.35;0.35;;;13.70;99.90;;;;;;5098097;28;20058;-76
2023/04/22 07:11:31;;;;;;;0.25;0.25;;;13.70;99.90;;;;;;5092441;28;20778;-76
2023/04/22 07:13:57;;;;;;;8.30;4.00;;;13.80;99.90;;;;;;5096122;28;20031;-76
2023/04/22 07:16:23;;;;;;;1.23;1.23;;;13.80;99.90;;;;;;5100911;28;20290;-76
2023/04/22 07:18:50;;;;;;;1.90;1.80;;;13.70;99.90;;;;;;5094879;28;20035;-76
2023/04/22 07:21:15;;;;;;;2.33;1.95;;;13.70;99.90;;;;;;5092080;28;20028;-76
2023/04/22 07:23:41;;;;;;;0.88;0.88;;;13.60;99.90;;;;;;5090581;28;20068;-76
2023/04/22 07:26:07;;;;;;;0.80;0.80;;;13.60;99.90;;;;;;5095324;28;20432;-76
2023/04/22 07:28:32;;;;;;;0.50;0.50;;;13.50;99.90;;;;;;5101095;27;20441;-76
2023/04/22 07:30:58;;;;;;;0.10;0.10;;;13.50;99.90;;;;;;5096503;27;20031;-76
2023/04/22 07:33:24;;;;;;;0.43;0.43;;;13.50;99.90;;;;;;5098321;28;20048;-76
2023/04/22 07:35:49;;;;;;;0.20;0.20;;;13.50;99.90;;;;;;5096246;28;20478;-76
2023/04/22 07:38:15;;;;;;;0.10;0.10;;;13.50;99.90;;;;;;5098222;28;20036;-76
2023/04/22 07:40:40;;;;;;;0.52;0.52;;;13.50;99.90;;;;;;5081207;28;20030;-76
2023/04/22 07:43:06;;;;;;;0.65;0.65;;;13.40;99.90;;;;;;5090489;28;20306;-77
2023/04/22 07:45:32;;;;;;;1.88;0.85;;;13.40;99.90;;;;;;5097531;28;20037;-81
2023/04/22 07:47:58;;;;;;;0.20;0.20;;;13.40;99.90;;;;;;5100885;27;20026;-87
2023/04/22 07:50:24;;;;;;;0.43;0.43;;;13.40;99.90;;;;;;5098273;28;20031;-84
2023/04/22 07:52:49;;;;;;;2.22;1.77;;;13.40;99.90;;;;;;5095987;28;20129;-85
2023/04/22 07:55:15;;;;;;;0.10;0.10;;;13.20;99.90;;;;;;5092363;28;20118;-83
2023/04/22 07:57:41;;;;;;;0.35;0.35;;;13.10;99.90;;;;;;5103314;28;20038;-82
2023/04/22 08:00:08;;;;;;;0.38;0.38;;;12.70;99.90;;;;;;5116022;27;20069;-84
2023/04/22 08:02:34;;;;;;;0.52;0.52;;;12.50;99.90;;;;;;5083969;28;20675;-84
2023/04/22 08:05:00;;;;;;;0.25;0.25;;;12.40;99.90;;;;;;5092558;28;20028;-82
2023/04/22 08:07:26;;;;;;;2.75;2.55;;;12.40;99.90;;;;;;5101330;28;20022;-84
2023/04/22 08:09:52;;;;;;;1.25;1.15;;;12.50;99.90;;;;;;5096525;28;20193;-82
2023/04/22 08:12:18;;;;;;;1.52;1.17;;;12.30;99.90;;;;;;5106694;27;20118;-83
2023/04/22 08:14:43;;;;;;;0.75;0.75;;;12.30;99.90;;;;;;5106130;28;20043;-84
2023/04/22 08:17:09;;;;;;;1.03;0.60;;;12.20;99.90;;;;;;5102481;28;20044;-79
2023/04/22 08:19:35;;;;;;;1.15;0.85;;;12.30;99.90;;;;;;5090116;28;20024;-80
2023/04/22 08:22:01;;;;;;;3.60;1.83;;;12.20;99.90;;;;;;5086419;28;20893;-82
2023/04/22 08:24:26;;;;;;;0.95;0.95;;;12.40;99.90;;;;;;5081961;28;20031;-82
2023/04/22 08:26:52;;;;;;;3.45;1.95;;;12.40;99.90;;;;;;5086935;27;20127;-84
2023/04/22 08:29:18;;;;;;;1.08;0.90;;;12.70;99.90;;;;;;5087046;28;20024;-81
2023/04/22 08:31:44;;;;;;;0.43;0.43;;;13.00;99.90;;;;;;5099158;28;20051;-79
2023/04/22 08:34:10;;;;;;;0.20;0.20;;;13.20;99.90;;;;;;5092667;28;20494;-80
2023/04/22 08:36:36;;;;;;;1.10;1.10;;;13.20;99.90;;;;;;5098990;28;20031;-80
2023/04/22 08:39:04;;;;;;;0.32;0.32;;;13.10;99.90;;;;;;5097922;28;20502;-82
2023/04/22 08:41:34;;;;;;;0.38;0.38;;;12.90;99.90;;;;;;5073648;28;20127;-80
2023/04/22 08:44:00;;;;;;;0.40;0.40;;;12.50;99.90;;;;;;5102134;28;20027;-81
2023/04/22 08:46:27;;;;;;;0.10;0.10;;;12.30;99.90;;;;;;5093466;28;20030;-82
2023/04/22 08:48:54;;;;;;;0.32;0.32;;;12.40;99.90;;;;;;5090285;28;20047;-80
2023/04/22 08:51:20;;;;;;;;;;;12.40;99.90;;;;;;5093410;27;20027;-81
2023/04/22 08:53:46;;;;;;;0.37;0.37;;;12.60;99.90;;;;;;5088919;28;19918;-81
2023/04/22 08:56:12;;;;;;;0.77;0.60;;;12.70;99.90;;;;;;5103019;28;20031;-83
2023/04/22 08:58:41;;;;;;;0.05;0.05;;;13.10;99.90;;;;;;5095153;28;20036;-83
2023/04/22 09:01:07;;;;;;;0.10;0.10;;;13.00;99.90;;;;;;5099581;28;20466;-83
2023/04/22 09:03:36;;;;;;;1.27;0.95;;;13.10;99.90;;;;;;5102655;28;20024;-83
2023/04/22 09:06:03;;;;;;;0.20;0.20;;;13.30;99.90;;;;;;5078578;28;20131;-81
2023/04/22 09:08:30;;;;;;;1.15;0.90;;;13.50;99.90;;;;;;5096770;28;20119;-82
2023/04/22 09:10:57;;;;;;;0.13;0.13;;;13.70;99.90;;;;;;5078823;28;20105;-81
2023/04/22 09:13:25;;;;;;;0.65;0.65;;;13.70;99.90;;;;;;5094037;28;20092;-83
2023/04/22 09:15:51;;;;;;;0.57;0.57;;;13.40;99.90;;;;;;5081889;28;20031;-82
2023/04/22 09:18:18;;;;;;;0.40;0.40;;;13.30;99.90;;;;;;5089673;28;20042;-83
2023/04/22 09:20:47;;;;;;;1.05;1.05;;;13.20;99.90;;;;;;5098376;28;20120;-81
2023/04/22 09:23:13;;;;;;;2.75;2.30;;;13.10;99.90;;;;;;5085025;28;20081;-79
2023/04/22 09:25:40;;;;;;;2.35;1.40;;;13.10;99.90;;;;;;5097892;28;20046;-82
2023/04/22 09:28:10;;;;;;;;;;;13.00;99.90;;;;;;5092044;28;20362;-82
2023/04/22 09:30:36;;;;;;;0.30;0.30;;;13.00;99.90;;;;;;5095187;27;19920;-82
2023/04/22 09:33:04;;;;;;;2.33;2.22;;;13.10;99.90;;;;;;5086551;28;20070;-81
2023/04/22 09:35:31;;;;;;;1.45;1.35;;;13.20;99.90;;;;;;5086466;28;20042;-82
2023/04/22 09:37:59;;;;;;;1.92;0.88;;;13.10;99.90;;;;;;5099520;28;20526;-81
2023/04/22 09:40:26;;;;;;;0.40;0.40;;;13.00;99.90;;;;;;5098436;28;20028;-83
2023/04/22 09:42:54;;;;;;;0.45;0.45;;;13.00;99.90;;;;;;5104287;28;20016;-81
2023/04/22 09:45:34;;;;;;;1.35;0.90;;;13.20;99.90;;;;;;5103040;28;20034;-81
2023/04/22 09:48:09;;;;;;;1.27;1.05;;;13.40;99.90;;;;;;5106142;27;20827;-82
2023/04/22 09:50:37;;;;;;;0.10;0.10;;;13.70;99.90;;;;;;5102251;27;20026;-81
2023/04/22 09:53:06;;;;;;;0.10;0.10;;;13.80;99.90;;;;;;5082784;28;20055;-79
2023/04/22 09:55:36;;;;;;;0.30;0.30;;;13.90;99.90;;;;;;5105431;27;20111;-81
2023/04/22 09:58:10;;;;;;;1.15;0.80;;;14.10;99.90;;;;;;5111105;27;20027;-81
2023/04/22 10:00:47;;;;;;;1.00;1.00;;;13.80;99.90;;;;;;5088270;28;20030;-80
2023/04/22 10:03:14;;;;;;;1.15;0.90;;;13.50;99.90;;;;;;5094557;28;20554;-80
2023/04/22 10:05:41;;;;;;;6.40;1.58;;;13.50;99.90;;;;;;5102404;28;20093;-82
2023/04/22 10:08:09;;;;;;;1.77;1.65;;;13.50;99.90;;;;;;5083906;28;20039;-81
2023/04/22 10:10:35;;;;;;;0.28;0.28;;;13.30;99.90;;;;;;5097440;27;20707;-79
2023/04/22 10:13:05;;;;;;;3.00;1.70;;;13.20;99.90;;;;;;5088624;28;20020;-79
2023/04/22 10:15:52;;;;;;;1.05;0.98;;;13.20;99.90;;;;;;5087748;28;20047;-80
2023/04/22 10:18:22;;;;;;;0.57;0.57;;;13.20;99.90;;;;;;5082347;28;20035;-80
2023/04/22 10:20:49;;;;;;;0.63;0.63;;;13.20;99.90;;;;;;5102922;27;20030;-80
2023/04/22 10:23:20;;;;;;;0.20;0.20;;;13.30;99.90;;;;;;5108283;27;20044;-80
2023/04/22 10:25:48;;;;;;;1.05;1.05;;;13.50;99.90;;;;;;5100111;27;20027;-79
2023/04/22 10:28:16;;;;;;;0.30;0.30;;;14.00;99.90;;;;;;5100625;27;20023;-80
2023/04/22 10:30:42;;;;;;;0.20;0.20;;;14.60;99.90;;;;;;5085633;28;20044;-78
2023/04/22 10:33:22;;;;;;;0.57;0.57;;;14.60;99.90;;;;;;5100007;28;20064;-80
2023/04/22 10:36:14;;;;;;;1.40;1.35;;;14.40;99.90;;;;;;5095502;28;20036;-79
2023/04/22 10:39:00;;;;;;;0.95;0.70;;;14.00;99.90;;;;;;5094948;27;20636;-80
2023/04/22 10:41:32;;;;;;;0.93;0.93;;;13.90;99.90;;;;;;5110217;27;20032;-82
2023/04/22 10:44:05;;;;;;;1.67;1.48;;;13.80;99.90;;;;;;5104647;28;20055;-81
2023/04/22 10:46:38;;;;;;;0.63;0.63;;;14.30;99.90;;;;;;5085250;27;20095;-81
2023/04/22 10:49:17;;;;;;;1.95;1.42;;;14.50;99.90;;;;;;5104738;28;20029;-83
2023/04/22 10:51:45;;;;;;;1.92;0.85;;;14.70;99.90;;;;;;5103906;27;20028;-82
2023/04/22 10:54:30;;;;;;;0.20;0.20;;;14.60;99.90;;;;;;5102973;28;20072;-81
2023/04/22 10:57:02;;;;;;;0.68;0.68;;;14.60;99.90;;;;;;5102585;27;20115;-81
2023/04/22 10:59:28;;;;;;;0.60;0.52;;;14.50;99.90;;;;;;5097643;28;20034;-83
2023/04/22 11:01:54;;;;;;;0.93;0.93;;;14.70;99.90;;;;;;5101409;28;20027;-82
2023/04/22 11:04:22;;;;;;;2.60;2.27;;;14.90;99.90;;;;;;5098504;28;20031;-81
2023/04/22 11:07:25;;;;;;;0.35;0.35;;;15.00;99.90;;;;;;5096173;28;20415;-81
2023/04/22 11:10:06;;;;;;;0.88;0.85;;;15.10;99.90;;;;;;5099203;27;20030;-83
2023/04/22 11:12:37;;;;;;;1.17;1.10;;;15.10;99.90;;;;;;5099267;28;20641;-82
2023/04/22 11:15:14;;;;;;;4.88;1.92;;;14.90;99.90;;;;;;5080896;28;20036;-81
2023/04/22 11:17:43;;;;;;;0.47;0.47;;;14.80;99.90;;;;;;5098974;28;20138;-81
2023/04/22 11:20:10;;;;;;;1.17;1.08;;;14.80;99.90;;;;;;5094692;28;20054;-83
2023/04/22 11:22:41;;;;;;;0.65;0.65;;;14.70;99.90;;;;;;5086668;27;20054;-83
2023/04/22 11:25:09;;;;;;;0.75;0.60;;;14.50;99.90;;;;;;5102025;27;20276;-83
2023/04/22 11:27:35;;;;;;;1.10;1.10;;;14.60;99.90;;;;;;5097983;28;20131;-83
2023/04/22 11:30:13;;;;;;;1.45;1.27;;;14.80;99.90;;;;;;5098760;27;20032;-82
2023/04/22 11:32:41;;;;;;;9.52;2.15;;;14.80;99.90;;;;;;5100517;27;20062;-82
2023/04/22 11:35:17;;;;;;;0.40;0.40;;;14.70;99.90;;;;;;5098965;28;20039;-81
2023/04/22 11:37:50;;;;;;;0.40;0.40;;;14.70;99.90;;;;;;5093529;28;20047;-82
2023/04/22 11:40:20;;;;;;;0.90;0.63;;;14.70;99.90;;;;;;5094182;28;20113;-81
2023/04/22 11:42:48;;;;;;;2.05;0.57;;;14.30;99.90;;;;;;5099890;27;20562;-80
2023/04/22 11:45:15;;;;;;;0.40;0.40;;;14.40;99.90;;;;;;5105523;27;20020;-82
2023/04/22 11:47:41;;;;;;;1.15;1.15;;;14.40;99.90;;;;;;5099961;27;20030;-80
2023/04/22 11:50:10;;;;;;;1.45;1.35;;;14.70;99.90;;;;;;5100188;27;20023;-81
2023/04/22 11:52:45;;;;;;;0.45;0.45;;;14.90;99.90;;;;;;5096117;28;20055;-79
2023/04/22 11:55:30;;;;;;;1.23;1.13;;;14.80;99.90;;;;;;5098732;27;20024;-81
2023/04/22 11:58:07;;;;;;;0.63;0.63;;;14.80;99.90;;;;;;5100356;28;20027;-83
2023/04/22 12:00:36;;;;;;;1.05;1.05;;;14.60;99.90;;;;;;5092077;27;20024;-82
2023/04/22 12:03:14;;;;;;;1.23;1.13;;;14.60;99.90;;;;;;5093895;28;20038;-82
2023/04/22 12:05:53;;;;;;;0.80;0.75;;;14.70;99.90;;;;;;5103017;28;20020;-83
2023/04/22 12:08:20;;;;;;;1.00;1.00;;;14.60;99.90;;;;;;5092994;27;20027;-81
2023/04/22 12:10:55;;;;;;;1.27;1.17;;;14.70;99.90;;;;;;5120162;27;20577;-84
2023/04/22 12:13:23;;;;;;;1.90;1.33;;;14.70;99.90;;;;;;5095443;27;20035;-81
2023/04/22 12:16:00;;;;;;;0.10;0.10;;;15.10;99.90;;;;;;5107557;27;20023;-81
2023/04/22 12:18:32;;;;;;;0.55;0.55;;;15.20;99.90;;;;;;5104028;27;20122;-83
2023/04/22 12:21:12;;;;;;;1.10;1.10;;;15.00;99.90;;;;;;5104753;27;20016;-82
2023/04/22 12:23:49;;;;;;;0.70;0.70;;;14.90;99.90;;;;;;5100588;27;20062;-82
2023/04/22 12:26:17;;;;;;;0.70;0.70;;;14.70;99.90;;;;;;5088953;27;20012;-82
2023/04/22 12:28:44;;;;;;;0.60;0.60;;;14.70;99.90;;;;;;5085533;28;20038;-83
2023/04/22 12:31:11;;;;;;;0.30;0.30;;;14.70;99.90;;;;;;5102011;27;20809;-84
2023/04/22 12:33:37;;;;;;;0.32;0.32;;;14.60;99.90;;;;;;5098044;27;20118;-84
2023/04/22 12:36:04;;;;;;;0.30;0.30;;;14.60;99.90;;;;;;5102199;28;20063;-83
2023/04/22 12:38:30;;;;;;;0.20;0.20;;;14.50;99.90;;;;;;5095881;28;20780;-83
2023/04/22 12:40:57;;;;;;;0.47;0.47;;;14.70;99.90;;;;;;5086315;28;20081;-83
2023/04/22 12:43:23;;;;;;;0.10;0.10;;;14.90;99.90;;;;;;5092775;28;20750;-81
2023/04/22 12:45:49;;;;;;;0.30;0.30;;;14.90;99.90;;;;;;5101298;28;20049;-79
2023/04/22 12:48:15;;;;;;;0.28;0.28;;;15.10;99.90;;;;;;5101973;28;20035;-82